Terminal Aerodrome Forecast
Issued by NWS Detroit/Pontiac, MI

Home | Current Version | Previous Version | Text Only | Print | Product List | Glossary On
Versions: 1 2 3 4 5 6 7 8 9 10 11 12 13 14 15 16 17 18 19 20 21 22 23 24 25
183
FTUS43 KDTX 221454 AAB
TAFDTW
TAF AMD
KDTW 221454Z 2215/2318 23012G18KT 6SM -SHRA BKN060
      TEMPO 2215/2217 -RA BKN015
     FM221700 26015G25KT P6SM VCSH OVC040
     FM222200 28013G20KT P6SM BKN040
     FM230100 30010KT P6SM SCT040
     FM231000 26005KT P6SM SCT025=

USA.gov is the U.S. government's official web portal to all federal, state and local government web resources and services.